• 1385014 10153382300060425 128216538 n
  • 3
  • 6
  • 7
  • 1
  • 10
  • 未命名
  • 121
  • 55
  • 2
  • cargo

Click here and log in to see your monthly flight duties. 請按此登入個人班表區

Welcome aboard

Current Weather

[source: ADDS]
METAR
RCTP 282023Z 03020KT 5000 -DZ SCT004 BKN006 BKN015 13/12 Q1021 NOSIG RMK A3015 =
TAF
TAF RCTP 281700Z 2818/0124 02012KT 6000 SCT005 BKN009 BKN020 TEMPO 2818/0102 03005KT 3200 RA SCT002 BKN004 BECMG 0102/0104 9999 FEW010 BKN016 BKN032 TEMPO 0104/0112 03018KT SCT008 BKN011 BKN025 BECMG 0112/0114 FEW015 BKN032 TEMPO 0118/0124 4500 BR =